Dubendorf Airport

Airport
ICAO code: 
LSMD
Summary
ICAO Region: 
EUR
Territory: 
Location: 
Dübendorf, Zurich
Serving: 
Dübendorf
Elevation: 
1470 ft
Coordinates: 
Aerial View: 
47° 23' 55.118" N, 8° 38' 53.632" E
Metar
Observation
LSMD 171620Z AUTO 34003KT 9999NDV SCT025 BKN029 OVC036 05/00 Q1036 RMK
Station
DUBENDORF
Date/Time
2022-01-17 16:20:00
Wind direction
340°
Wind speed
03 kts
Lowest cloud amount
scattered clouds
Temperature
5°C
Dew point
0°C
Humidity
70%
QNH
1036 hPa
Weather condition
n/a

Militärflugplatz Dübendorf is a military airfield northeast of Dübendorf in Switzerland, located east of Zürich.

Climatology

Temperate oceanic climate (Köppen climate classification Cfb)

Runways

Designator Length Width Surface Rops
11R/29L 649 30 GRS No/No
11/29 2355 40 ASP No/No
Airport map: 
Aerial View: 

SKYbrary Partners:

Safety knowledge contributed by: